Flight Track Log - Related Links

Times and Time Zones

All times are in EDT time to prevent confusion due to time zone crossing. See the RPA3468 flight status page for this flight to view local times or setup timezone preferences in your user account.

Time Position Orientation Groundspeed Altitude Reporting Facility
EDT Latitude Longitude Course Direction KTS MPH feet Rate Location/Type
Tue 07:30:52 PM 38.8167 -77.0333 83° East 151 174 1,900  Level Potomac TRACON
Tue 07:31:52 PM 38.7667 -77.0167 165° South 249 287 4,100 2,889 Climbing Potomac TRACON
Tue 07:33:00 PM 39.0179 -76.5628 67° East  Level FlightAware Approximate
Tue 07:33:34 PM 38.8169 -76.8811 65° Northeast 280 322 9,700  Level Washington Center
Tue 07:34:00 PM 39.0627 -76.4433 63° Northeast  Level FlightAware Approximate
Tue 07:34:34 PM 38.8761 -76.7994 47° Northeast 294 338 12,300  Level Washington Center
Tue 07:35:00 PM 39.1123 -76.3269 61° Northeast  Level FlightAware Approximate
Tue 07:35:34 PM 38.9292 -76.7017 55° Northeast 306 352 15,300  Level Washington Center
Tue 07:36:00 PM 39.1504 -76.2123 83° East  Level FlightAware Approximate
Tue 07:36:35 PM 38.9739 -76.5928 62° Northeast 327 376 17,800  Level Washington Center
Tue 07:37:35 PM 39.0122 -76.4653 69° East 365 420 20,200 2,479 Climbing Washington Center
Tue 07:38:36 PM 39.0508 -76.3347 69° East 372 428 22,800 1,388 Climbing Washington Center
Tue 07:39:36 PM 39.0911 -76.2042 68° East 383 441 23,000 102 Climbing Washington Center
Tue 07:40:34 PM 39.1353 -76.0733 66° East 388 447 23,000 661 Level Washington Center
Tue 07:41:34 PM 39.1733 -75.9397 70° East 393 452 24,300 1,574 Climbing Washington Center
Tue 07:42:36 PM 39.2319 -75.8275 56° Northeast 386 444 26,200 1,916 Climbing Washington Center
Tue 07:43:33 PM 39.3050 -75.7364 44° Northeast 369 425 28,100 1,576 Climbing Washington Center
Tue 07:44:34 PM 39.3781 -75.6400 46° Northeast 369 425 29,300 1,230 Climbing Washington Center
Tue 07:45:35 PM 39.4553 -75.5406 45° Northeast 369 425 30,600 1,443 Climbing Washington Center
Tue 07:48:06 PM 39.6367 -75.3050 45° Northeast 382 440 34,400 1,251 Climbing New York Center
Tue 07:49:06 PM 39.7092 -75.2072 46° Northeast 377 434 35,000 300 Climbing New York Center
Tue 07:50:06 PM 39.7842 -75.0958 49° Northeast 389 448 35,000  Level New York Center
Tue 07:51:07 PM 39.8611 -74.9869 47° Northeast 401 461 35,000  Level New York Center
Tue 07:52:08 PM 39.9356 -74.8806 48° Northeast 406 467 35,000  Level New York Center
Tue 07:53:05 PM 40.0144 -74.7714 47° Northeast 400 460 35,000  Level New York Center
Tue 07:54:05 PM 40.0928 -74.6700 45° Northeast 405 466 35,000  Level New York Center
Tue 07:55:08 PM 40.1900 -74.6347 15° North 357 411 35,000  Level New York Center
Tue 07:56:05 PM 40.2889 -74.6022 14° North 357 411 35,000  Level New York Center
Tue 07:57:08 PM 40.3856 -74.5747 12° North 352 405 35,000  Level New York Center
Tue 07:59:32 PM 40.6186 -74.4961 14° North 345 397 35,000  Level Boston Center
Tue 08:00:43 PM 40.7169 -74.4636 14° North 345 397 35,000  Level Boston Center
Tue 08:01:43 PM 40.8133 -74.4339 13° North 350 403 35,000  Level Boston Center
Tue 08:02:55 PM 40.9308 -74.3961 14° North 356 410 35,000  Level Boston Center
Tue 08:03:56 PM 41.0503 -74.3639 11° North 356 410 35,000  Level Boston Center
Tue 08:05:07 PM 41.1508 -74.3311 14° North 356 410 35,000  Level Boston Center
Tue 08:06:08 PM 41.2767 -74.2853 15° North 356 410 35,000  Level Boston Center
Tue 08:07:08 PM 41.3750 -74.2519 14° North 361 415 35,000  Level Boston Center
Tue 08:08:08 PM 41.4736 -74.2189 14° North 361 415 35,000  Level Boston Center
Tue 08:09:08 PM 41.5658 -74.1908 13° North 361 415 35,000  Level Boston Center
Tue 08:10:08 PM 41.6664 -74.1547 15° North 361 415 35,000  Level Boston Center
Tue 08:11:08 PM 41.7625 -74.1239 13° North 361 415 35,000  Level Boston Center
Tue 08:12:08 PM 41.8589 -74.0903 15° North 361 415 35,000  Level Boston Center
Tue 08:13:08 PM 41.9617 -74.0567 14° North 361 415 35,000  Level Boston Center
Tue 08:14:08 PM 42.0622 -74.0228 14° North 361 415 35,000  Level Boston Center
Tue 08:15:08 PM 42.1606 -73.9889 14° North 361 415 35,000  Level Boston Center
Tue 08:16:08 PM 42.2631 -73.9522 15° North 361 415 35,000  Level Boston Center
Tue 08:17:08 PM 42.3658 -73.9181 14° North 367 422 35,000  Level Boston Center
Tue 08:18:08 PM 42.4706 -73.8811 15° North 373 429 35,000  Level Boston Center
Tue 08:19:08 PM 42.5708 -73.8469 14° North 378 435 35,000  Level Boston Center
Tue 08:20:08 PM 42.6714 -73.8097 15° North 378 435 35,000  Level Boston Center
Tue 08:21:08 PM 42.7886 -73.7669 15° North 378 435 35,000 -900 Level Boston Center
Tue 08:22:08 PM 42.8869 -73.7322 15° North 378 435 33,200 -2,050 Descending Boston Center
Tue 08:23:08 PM 42.9833 -73.6972 15° North 366 421 30,900 -2,400 Descending Boston Center
Tue 08:24:08 PM 43.0817 -73.6625 14° North 359 413 28,400 -2,250 Descending Boston Center
Tue 08:25:08 PM 43.1758 -73.6272 15° North 369 425 26,400 -2,250 Descending Boston Center
Tue 08:26:08 PM 43.2803 -73.5894 15° North 374 430 23,900 -2,200 Descending Boston Center
Tue 08:27:08 PM 43.3828 -73.5542 14° North 379 436 22,000 -950 Descending Boston Center
Tue 08:28:08 PM 43.4833 -73.5161 15° North 379 436 22,000 -1,000 Level Boston Center
Tue 08:29:08 PM 43.5836 -73.4806 14° North 379 436 20,000 -2,100 Descending Boston Center
Tue 08:30:08 PM 43.6797 -73.4478 14° North 369 425 17,800 -2,100 Descending Boston Center
Tue 08:31:08 PM 43.7694 -73.4175 14° North 343 395 15,800 -2,200 Descending Boston Center
Tue 08:32:08 PM 43.8594 -73.3817 16° North 332 382 13,400 -2,350 Descending Boston Center
Tue 08:33:08 PM 43.9453 -73.3514 14° North 326 375 11,100 -2,300 Descending Boston Center
Tue 08:34:08 PM 44.0267 -73.3208 15° North 285 328 8,800 -2,450 Descending Boston Center
Tue 08:35:08 PM 44.0978 -73.2958 14° North 271 312 6,200 -1,412 Descending Boston Center
Tue 08:36:07 PM 44.1500 -73.2733 17° North 271 312 6,000 -1,000 Descending Boston Center
Tue 08:37:08 PM 44.2275 -73.2194 26° Northeast 241 277 4,200 -992 Descending Boston Center
Tue 08:38:08 PM 44.2778 -73.1678 36° Northeast 229 264 4,000 -300 Descending Boston Center
Tue 08:39:08 PM 44.3219 -73.1219 37° Northeast 211 243 3,600 -300 Descending Boston Center
Tue 08:40:08 PM 44.3636 -73.0819 34° Northeast 192 221 3,400 -200 Descending Boston Center

Login

Don't have an account? Register now (free) for customized features, flight alerts, and more!